<?xml version="1.0" encoding="UTF-8"?>
<gpx version="1.1" creator="https://www.youtrack.es" xsi:schemaLocation="http://www.topografix.com/GPX/1/1 http://www.topografix.com/GPX/1/1/gpx.xsd http://www.garmin.com/xmlschemas/GpxExtensions/v3 http://www.garmin.com/xmlschemas/GpxExtensionsv3.xsd http://www.garmin.com/xmlschemas/TrackPointExtension/v1 http://www.garmin.com/xmlschemas/TrackPointExtensionv1.xsd" xmlns:gpxtpx="http://www.garmin.com/xmlschemas/TrackPointExtension/v1" xmlns:gpxx="http://www.garmin.com/xmlschemas/GpxExtensions/v3" xmlns:xsi="http://www.w3.org/2001/XMLSchema-instance">
  <metadata>
    <link href="https://www.youtrack.es">
      <text>YouTrack.es</text>
    </link>
    <time>2026-05-10T23:16:23Z</time>
  </metadata>
  <trk>
    <src>https://www.youtrack.es</src>
    <link href="https://www.youtrack.es/ruta/12191-duanefek">
      <text>YouTrack.es</text>
    </link>
    <trkseg>
      <trkpt lat="40.236045" lon="-6.540797">
        <ele>433.0</ele>
        <time>2015-04-17T17:31:29Z</time>
      </trkpt>
      <trkpt lat="40.235918" lon="-6.540636">
        <ele>430.0</ele>
        <time>2015-04-17T17:31:49Z</time>
      </trkpt>
      <trkpt lat="40.235742" lon="-6.540524">
        <ele>430.0</ele>
        <time>2015-04-17T17:32:09Z</time>
      </trkpt>
      <trkpt lat="40.235648" lon="-6.540508">
        <ele>430.0</ele>
        <time>2015-04-17T17:32:29Z</time>
      </trkpt>
      <trkpt lat="40.235414" lon="-6.540551">
        <ele>430.0</ele>
        <time>2015-04-17T17:32:49Z</time>
      </trkpt>
      <trkpt lat="40.235152" lon="-6.540502">
        <ele>430.0</ele>
        <time>2015-04-17T17:33:09Z</time>
      </trkpt>
      <trkpt lat="40.234960" lon="-6.540454">
        <ele>429.0</ele>
        <time>2015-04-17T17:33:29Z</time>
      </trkpt>
      <trkpt lat="40.234669" lon="-6.540298">
        <ele>425.0</ele>
        <time>2015-04-17T17:33:49Z</time>
      </trkpt>
      <trkpt lat="40.234395" lon="-6.540191">
        <ele>424.0</ele>
        <time>2015-04-17T17:34:09Z</time>
      </trkpt>
      <trkpt lat="40.234227" lon="-6.540170">
        <ele>424.0</ele>
        <time>2015-04-17T17:34:29Z</time>
      </trkpt>
      <trkpt lat="40.234055" lon="-6.540234">
        <ele>424.0</ele>
        <time>2015-04-17T17:34:49Z</time>
      </trkpt>
      <trkpt lat="40.233871" lon="-6.540239">
        <ele>424.0</ele>
        <time>2015-04-17T17:35:09Z</time>
      </trkpt>
      <trkpt lat="40.233694" lon="-6.540336">
        <ele>423.0</ele>
        <time>2015-04-17T17:35:29Z</time>
      </trkpt>
      <trkpt lat="40.233551" lon="-6.540411">
        <ele>423.0</ele>
        <time>2015-04-17T17:35:49Z</time>
      </trkpt>
      <trkpt lat="40.233436" lon="-6.540433">
        <ele>427.0</ele>
        <time>2015-04-17T17:36:09Z</time>
      </trkpt>
      <trkpt lat="40.233285" lon="-6.540518">
        <ele>427.0</ele>
        <time>2015-04-17T17:36:29Z</time>
      </trkpt>
      <trkpt lat="40.233031" lon="-6.540631">
        <ele>424.0</ele>
        <time>2015-04-17T17:36:49Z</time>
      </trkpt>
      <trkpt lat="40.232765" lon="-6.540679">
        <ele>420.0</ele>
        <time>2015-04-17T17:37:09Z</time>
      </trkpt>
      <trkpt lat="40.232642" lon="-6.540690">
        <ele>420.0</ele>
        <time>2015-04-17T17:37:29Z</time>
      </trkpt>
      <trkpt lat="40.232548" lon="-6.540765">
        <ele>420.0</ele>
        <time>2015-04-17T17:37:49Z</time>
      </trkpt>
      <trkpt lat="40.232454" lon="-6.540819">
        <ele>420.0</ele>
        <time>2015-04-17T17:38:09Z</time>
      </trkpt>
      <trkpt lat="40.232323" lon="-6.540926">
        <ele>416.0</ele>
        <time>2015-04-17T17:38:29Z</time>
      </trkpt>
      <trkpt lat="40.232212" lon="-6.541017">
        <ele>418.0</ele>
        <time>2015-04-17T17:38:49Z</time>
      </trkpt>
      <trkpt lat="40.232073" lon="-6.541098">
        <ele>414.0</ele>
        <time>2015-04-17T17:39:09Z</time>
      </trkpt>
      <trkpt lat="40.231942" lon="-6.541243">
        <ele>414.0</ele>
        <time>2015-04-17T17:39:29Z</time>
      </trkpt>
      <trkpt lat="40.231815" lon="-6.541312">
        <ele>416.0</ele>
        <time>2015-04-17T17:39:49Z</time>
      </trkpt>
      <trkpt lat="40.231716" lon="-6.541302">
        <ele>413.0</ele>
        <time>2015-04-17T17:40:09Z</time>
      </trkpt>
      <trkpt lat="40.231626" lon="-6.541286">
        <ele>413.0</ele>
        <time>2015-04-17T17:40:29Z</time>
      </trkpt>
      <trkpt lat="40.231561" lon="-6.541296">
        <ele>413.0</ele>
        <time>2015-04-17T17:40:49Z</time>
      </trkpt>
      <trkpt lat="40.231503" lon="-6.541414">
        <ele>413.0</ele>
        <time>2015-04-17T17:41:09Z</time>
      </trkpt>
      <trkpt lat="40.231438" lon="-6.541586">
        <ele>414.0</ele>
        <time>2015-04-17T17:41:29Z</time>
      </trkpt>
      <trkpt lat="40.231393" lon="-6.541758">
        <ele>414.0</ele>
        <time>2015-04-17T17:41:49Z</time>
      </trkpt>
      <trkpt lat="40.231254" lon="-6.541897">
        <ele>415.0</ele>
        <time>2015-04-17T17:42:09Z</time>
      </trkpt>
      <trkpt lat="40.231123" lon="-6.542004">
        <ele>415.0</ele>
        <time>2015-04-17T17:42:29Z</time>
      </trkpt>
      <trkpt lat="40.230959" lon="-6.542214">
        <ele>417.0</ele>
        <time>2015-04-17T17:42:49Z</time>
      </trkpt>
      <trkpt lat="40.230877" lon="-6.542315">
        <ele>417.0</ele>
        <time>2015-04-17T17:43:09Z</time>
      </trkpt>
      <trkpt lat="40.230799" lon="-6.542434">
        <ele>419.0</ele>
        <time>2015-04-17T17:43:29Z</time>
      </trkpt>
      <trkpt lat="40.230619" lon="-6.542562">
        <ele>419.0</ele>
        <time>2015-04-17T17:43:49Z</time>
      </trkpt>
      <trkpt lat="40.230500" lon="-6.542664">
        <ele>421.0</ele>
        <time>2015-04-17T17:44:09Z</time>
      </trkpt>
      <trkpt lat="40.230394" lon="-6.542745">
        <ele>420.0</ele>
        <time>2015-04-17T17:44:29Z</time>
      </trkpt>
      <trkpt lat="40.230228" lon="-6.542801">
        <ele>420.0</ele>
        <time>2015-04-17T17:44:49Z</time>
      </trkpt>
      <trkpt lat="40.230123" lon="-6.542849">
        <ele>418.0</ele>
        <time>2015-04-17T17:45:09Z</time>
      </trkpt>
      <trkpt lat="40.229968" lon="-6.542999">
        <ele>420.0</ele>
        <time>2015-04-17T17:45:29Z</time>
      </trkpt>
      <trkpt lat="40.229771" lon="-6.543075">
        <ele>419.0</ele>
        <time>2015-04-17T17:45:49Z</time>
      </trkpt>
      <trkpt lat="40.229689" lon="-6.543136">
        <ele>419.0</ele>
        <time>2015-04-17T17:46:09Z</time>
      </trkpt>
      <trkpt lat="40.229546" lon="-6.543230">
        <ele>420.0</ele>
        <time>2015-04-17T17:46:29Z</time>
      </trkpt>
      <trkpt lat="40.229496" lon="-6.543286">
        <ele>420.0</ele>
        <time>2015-04-17T17:46:49Z</time>
      </trkpt>
      <trkpt lat="40.229327" lon="-6.543402">
        <ele>420.0</ele>
        <time>2015-04-17T17:47:09Z</time>
      </trkpt>
      <trkpt lat="40.229174" lon="-6.543512">
        <ele>420.0</ele>
        <time>2015-04-17T17:47:29Z</time>
      </trkpt>
      <trkpt lat="40.229118" lon="-6.543555">
        <ele>420.0</ele>
        <time>2015-04-17T17:47:49Z</time>
      </trkpt>
      <trkpt lat="40.229073" lon="-6.543600">
        <ele>420.0</ele>
        <time>2015-04-17T17:48:09Z</time>
      </trkpt>
      <trkpt lat="40.228955" lon="-6.543768">
        <ele>421.0</ele>
        <time>2015-04-17T17:48:29Z</time>
      </trkpt>
      <trkpt lat="40.228876" lon="-6.543854">
        <ele>421.0</ele>
        <time>2015-04-17T17:48:49Z</time>
      </trkpt>
      <trkpt lat="40.228786" lon="-6.543938">
        <ele>421.0</ele>
        <time>2015-04-17T17:49:09Z</time>
      </trkpt>
      <trkpt lat="40.228662" lon="-6.544050">
        <ele>421.0</ele>
        <time>2015-04-17T17:49:29Z</time>
      </trkpt>
      <trkpt lat="40.228581" lon="-6.544153">
        <ele>421.0</ele>
        <time>2015-04-17T17:49:49Z</time>
      </trkpt>
      <trkpt lat="40.228455" lon="-6.544351">
        <ele>422.0</ele>
        <time>2015-04-17T17:50:09Z</time>
      </trkpt>
      <trkpt lat="40.228335" lon="-6.544526">
        <ele>422.0</ele>
        <time>2015-04-17T17:50:29Z</time>
      </trkpt>
      <trkpt lat="40.228264" lon="-6.544586">
        <ele>424.0</ele>
        <time>2015-04-17T17:50:49Z</time>
      </trkpt>
      <trkpt lat="40.228201" lon="-6.544637">
        <ele>424.0</ele>
        <time>2015-04-17T17:51:09Z</time>
      </trkpt>
      <trkpt lat="40.228130" lon="-6.544715">
        <ele>423.0</ele>
        <time>2015-04-17T17:51:29Z</time>
      </trkpt>
      <trkpt lat="40.228048" lon="-6.544845">
        <ele>423.0</ele>
        <time>2015-04-17T17:51:49Z</time>
      </trkpt>
      <trkpt lat="40.227966" lon="-6.544960">
        <ele>426.0</ele>
        <time>2015-04-17T17:52:09Z</time>
      </trkpt>
      <trkpt lat="40.227867" lon="-6.545092">
        <ele>425.0</ele>
        <time>2015-04-17T17:52:29Z</time>
      </trkpt>
      <trkpt lat="40.227786" lon="-6.545196">
        <ele>427.0</ele>
        <time>2015-04-17T17:52:49Z</time>
      </trkpt>
      <trkpt lat="40.227697" lon="-6.545329">
        <ele>427.0</ele>
        <time>2015-04-17T17:53:09Z</time>
      </trkpt>
      <trkpt lat="40.227575" lon="-6.545407">
        <ele>426.0</ele>
        <time>2015-04-17T17:53:29Z</time>
      </trkpt>
      <trkpt lat="40.227446" lon="-6.545476">
        <ele>428.0</ele>
        <time>2015-04-17T17:53:49Z</time>
      </trkpt>
      <trkpt lat="40.227384" lon="-6.545527">
        <ele>428.0</ele>
        <time>2015-04-17T17:54:09Z</time>
      </trkpt>
      <trkpt lat="40.227297" lon="-6.545600">
        <ele>427.0</ele>
        <time>2015-04-17T17:54:29Z</time>
      </trkpt>
      <trkpt lat="40.227216" lon="-6.545726">
        <ele>429.0</ele>
        <time>2015-04-17T17:54:49Z</time>
      </trkpt>
      <trkpt lat="40.227132" lon="-6.545894">
        <ele>429.0</ele>
        <time>2015-04-17T17:55:09Z</time>
      </trkpt>
      <trkpt lat="40.227059" lon="-6.546061">
        <ele>429.0</ele>
        <time>2015-04-17T17:55:29Z</time>
      </trkpt>
      <trkpt lat="40.226995" lon="-6.546171">
        <ele>429.0</ele>
        <time>2015-04-17T17:55:49Z</time>
      </trkpt>
      <trkpt lat="40.226905" lon="-6.546256">
        <ele>432.0</ele>
        <time>2015-04-17T17:56:09Z</time>
      </trkpt>
      <trkpt lat="40.226779" lon="-6.546332">
        <ele>431.0</ele>
        <time>2015-04-17T17:56:29Z</time>
      </trkpt>
      <trkpt lat="40.226679" lon="-6.546406">
        <ele>431.0</ele>
        <time>2015-04-17T17:56:49Z</time>
      </trkpt>
      <trkpt lat="40.226587" lon="-6.546523">
        <ele>431.0</ele>
        <time>2015-04-17T17:57:09Z</time>
      </trkpt>
      <trkpt lat="40.226526" lon="-6.546598">
        <ele>433.0</ele>
        <time>2015-04-17T17:57:29Z</time>
      </trkpt>
      <trkpt lat="40.226422" lon="-6.546722">
        <ele>433.0</ele>
        <time>2015-04-17T17:57:49Z</time>
      </trkpt>
      <trkpt lat="40.226352" lon="-6.546814">
        <ele>435.0</ele>
        <time>2015-04-17T17:58:09Z</time>
      </trkpt>
      <trkpt lat="40.226286" lon="-6.546922">
        <ele>435.0</ele>
        <time>2015-04-17T17:58:29Z</time>
      </trkpt>
      <trkpt lat="40.226186" lon="-6.547059">
        <ele>435.0</ele>
        <time>2015-04-17T17:58:49Z</time>
      </trkpt>
      <trkpt lat="40.226127" lon="-6.547146">
        <ele>437.0</ele>
        <time>2015-04-17T17:59:09Z</time>
      </trkpt>
      <trkpt lat="40.226061" lon="-6.547308">
        <ele>437.0</ele>
        <time>2015-04-17T17:59:29Z</time>
      </trkpt>
      <trkpt lat="40.225933" lon="-6.547512">
        <ele>439.0</ele>
        <time>2015-04-17T17:59:49Z</time>
      </trkpt>
      <trkpt lat="40.225857" lon="-6.547587">
        <ele>439.0</ele>
        <time>2015-04-17T18:00:09Z</time>
      </trkpt>
      <trkpt lat="40.225776" lon="-6.547665">
        <ele>442.0</ele>
        <time>2015-04-17T18:00:29Z</time>
      </trkpt>
      <trkpt lat="40.225605" lon="-6.547842">
        <ele>441.0</ele>
        <time>2015-04-17T18:00:49Z</time>
      </trkpt>
      <trkpt lat="40.225409" lon="-6.548070">
        <ele>442.0</ele>
        <time>2015-04-17T18:01:09Z</time>
      </trkpt>
      <trkpt lat="40.225287" lon="-6.548240">
        <ele>446.0</ele>
        <time>2015-04-17T18:01:29Z</time>
      </trkpt>
      <trkpt lat="40.225214" lon="-6.548426">
        <ele>446.0</ele>
        <time>2015-04-17T18:01:49Z</time>
      </trkpt>
      <trkpt lat="40.225144" lon="-6.548506">
        <ele>449.0</ele>
        <time>2015-04-17T18:02:09Z</time>
      </trkpt>
      <trkpt lat="40.224980" lon="-6.548596">
        <ele>448.0</ele>
        <time>2015-04-17T18:02:29Z</time>
      </trkpt>
      <trkpt lat="40.224903" lon="-6.548667">
        <ele>448.0</ele>
        <time>2015-04-17T18:02:49Z</time>
      </trkpt>
      <trkpt lat="40.224850" lon="-6.548820">
        <ele>449.0</ele>
        <time>2015-04-17T18:03:09Z</time>
      </trkpt>
      <trkpt lat="40.224805" lon="-6.549032">
        <ele>452.0</ele>
        <time>2015-04-17T18:03:29Z</time>
      </trkpt>
      <trkpt lat="40.224761" lon="-6.549150">
        <ele>452.0</ele>
        <time>2015-04-17T18:03:49Z</time>
      </trkpt>
      <trkpt lat="40.224683" lon="-6.549289">
        <ele>452.0</ele>
        <time>2015-04-17T18:04:09Z</time>
      </trkpt>
      <trkpt lat="40.224556" lon="-6.549426">
        <ele>451.0</ele>
        <time>2015-04-17T18:04:29Z</time>
      </trkpt>
      <trkpt lat="40.224464" lon="-6.549488">
        <ele>451.0</ele>
        <time>2015-04-17T18:04:49Z</time>
      </trkpt>
      <trkpt lat="40.224368" lon="-6.549548">
        <ele>451.0</ele>
        <time>2015-04-17T18:05:09Z</time>
      </trkpt>
      <trkpt lat="40.224291" lon="-6.549620">
        <ele>450.0</ele>
        <time>2015-04-17T18:05:29Z</time>
      </trkpt>
      <trkpt lat="40.224171" lon="-6.549799">
        <ele>450.0</ele>
        <time>2015-04-17T18:05:49Z</time>
      </trkpt>
      <trkpt lat="40.223991" lon="-6.550009">
        <ele>449.0</ele>
        <time>2015-04-17T18:06:09Z</time>
      </trkpt>
      <trkpt lat="40.223866" lon="-6.550133">
        <ele>449.0</ele>
        <time>2015-04-17T18:06:29Z</time>
      </trkpt>
      <trkpt lat="40.223698" lon="-6.550288">
        <ele>448.0</ele>
        <time>2015-04-17T18:06:49Z</time>
      </trkpt>
      <trkpt lat="40.223502" lon="-6.550441">
        <ele>449.0</ele>
        <time>2015-04-17T18:07:09Z</time>
      </trkpt>
      <trkpt lat="40.223359" lon="-6.550518">
        <ele>446.0</ele>
        <time>2015-04-17T18:07:29Z</time>
      </trkpt>
      <trkpt lat="40.223182" lon="-6.550620">
        <ele>445.0</ele>
        <time>2015-04-17T18:07:49Z</time>
      </trkpt>
      <trkpt lat="40.223041" lon="-6.550684">
        <ele>445.0</ele>
        <time>2015-04-17T18:08:09Z</time>
      </trkpt>
      <trkpt lat="40.222937" lon="-6.550742">
        <ele>446.0</ele>
        <time>2015-04-17T18:08:29Z</time>
      </trkpt>
      <trkpt lat="40.222851" lon="-6.550806">
        <ele>446.0</ele>
        <time>2015-04-17T18:08:49Z</time>
      </trkpt>
      <trkpt lat="40.222714" lon="-6.550886">
        <ele>446.0</ele>
        <time>2015-04-17T18:09:09Z</time>
      </trkpt>
      <trkpt lat="40.222595" lon="-6.550915">
        <ele>447.0</ele>
        <time>2015-04-17T18:09:29Z</time>
      </trkpt>
      <trkpt lat="40.222484" lon="-6.550959">
        <ele>447.0</ele>
        <time>2015-04-17T18:09:49Z</time>
      </trkpt>
      <trkpt lat="40.222356" lon="-6.551034">
        <ele>450.0</ele>
        <time>2015-04-17T18:10:09Z</time>
      </trkpt>
      <trkpt lat="40.222204" lon="-6.551140">
        <ele>450.0</ele>
        <time>2015-04-17T18:10:29Z</time>
      </trkpt>
      <trkpt lat="40.222077" lon="-6.551226">
        <ele>452.0</ele>
        <time>2015-04-17T18:10:49Z</time>
      </trkpt>
      <trkpt lat="40.221927" lon="-6.551302">
        <ele>452.0</ele>
        <time>2015-04-17T18:11:09Z</time>
      </trkpt>
      <trkpt lat="40.221801" lon="-6.551397">
        <ele>453.0</ele>
        <time>2015-04-17T18:11:29Z</time>
      </trkpt>
      <trkpt lat="40.221618" lon="-6.551564">
        <ele>453.0</ele>
        <time>2015-04-17T18:11:49Z</time>
      </trkpt>
      <trkpt lat="40.221491" lon="-6.551667">
        <ele>454.0</ele>
        <time>2015-04-17T18:12:09Z</time>
      </trkpt>
      <trkpt lat="40.221355" lon="-6.551757">
        <ele>454.0</ele>
        <time>2015-04-17T18:12:29Z</time>
      </trkpt>
      <trkpt lat="40.221219" lon="-6.551852">
        <ele>452.0</ele>
        <time>2015-04-17T18:12:49Z</time>
      </trkpt>
      <trkpt lat="40.221117" lon="-6.551924">
        <ele>452.0</ele>
        <time>2015-04-17T18:13:09Z</time>
      </trkpt>
      <trkpt lat="40.220935" lon="-6.552006">
        <ele>451.0</ele>
        <time>2015-04-17T18:13:29Z</time>
      </trkpt>
      <trkpt lat="40.220813" lon="-6.552048">
        <ele>451.0</ele>
        <time>2015-04-17T18:13:49Z</time>
      </trkpt>
      <trkpt lat="40.220746" lon="-6.552075">
        <ele>451.0</ele>
        <time>2015-04-17T18:14:09Z</time>
      </trkpt>
      <trkpt lat="40.220633" lon="-6.552225">
        <ele>448.0</ele>
        <time>2015-04-17T18:14:29Z</time>
      </trkpt>
      <trkpt lat="40.220453" lon="-6.552496">
        <ele>447.0</ele>
        <time>2015-04-17T18:14:49Z</time>
      </trkpt>
      <trkpt lat="40.220339" lon="-6.552731">
        <ele>445.0</ele>
        <time>2015-04-17T18:15:09Z</time>
      </trkpt>
      <trkpt lat="40.220153" lon="-6.553064">
        <ele>445.0</ele>
        <time>2015-04-17T18:15:29Z</time>
      </trkpt>
      <trkpt lat="40.220012" lon="-6.553368">
        <ele>446.0</ele>
        <time>2015-04-17T18:15:49Z</time>
      </trkpt>
      <trkpt lat="40.219954" lon="-6.553503">
        <ele>446.0</ele>
        <time>2015-04-17T18:16:09Z</time>
      </trkpt>
      <trkpt lat="40.219826" lon="-6.553727">
        <ele>446.0</ele>
        <time>2015-04-17T18:16:29Z</time>
      </trkpt>
      <trkpt lat="40.219755" lon="-6.553951">
        <ele>446.0</ele>
        <time>2015-04-17T18:16:49Z</time>
      </trkpt>
      <trkpt lat="40.219640" lon="-6.554250">
        <ele>446.0</ele>
        <time>2015-04-17T18:17:09Z</time>
      </trkpt>
      <trkpt lat="40.219546" lon="-6.554499">
        <ele>445.0</ele>
        <time>2015-04-17T18:17:29Z</time>
      </trkpt>
      <trkpt lat="40.219419" lon="-6.554800">
        <ele>445.0</ele>
        <time>2015-04-17T18:17:49Z</time>
      </trkpt>
      <trkpt lat="40.219324" lon="-6.555092">
        <ele>445.0</ele>
        <time>2015-04-17T18:18:09Z</time>
      </trkpt>
      <trkpt lat="40.219237" lon="-6.555386">
        <ele>444.0</ele>
        <time>2015-04-17T18:18:29Z</time>
      </trkpt>
      <trkpt lat="40.219150" lon="-6.555556">
        <ele>445.0</ele>
        <time>2015-04-17T18:18:49Z</time>
      </trkpt>
      <trkpt lat="40.219011" lon="-6.555812">
        <ele>446.0</ele>
        <time>2015-04-17T18:19:09Z</time>
      </trkpt>
      <trkpt lat="40.218875" lon="-6.556086">
        <ele>448.0</ele>
        <time>2015-04-17T18:19:29Z</time>
      </trkpt>
      <trkpt lat="40.218771" lon="-6.556291">
        <ele>450.0</ele>
        <time>2015-04-17T18:19:49Z</time>
      </trkpt>
      <trkpt lat="40.218597" lon="-6.556563">
        <ele>452.0</ele>
        <time>2015-04-17T18:20:09Z</time>
      </trkpt>
      <trkpt lat="40.218480" lon="-6.556799">
        <ele>452.0</ele>
        <time>2015-04-17T18:20:29Z</time>
      </trkpt>
      <trkpt lat="40.218396" lon="-6.557060">
        <ele>453.0</ele>
        <time>2015-04-17T18:20:49Z</time>
      </trkpt>
      <trkpt lat="40.218316" lon="-6.557251">
        <ele>455.0</ele>
        <time>2015-04-17T18:21:09Z</time>
      </trkpt>
      <trkpt lat="40.218179" lon="-6.557530">
        <ele>453.0</ele>
        <time>2015-04-17T18:21:29Z</time>
      </trkpt>
      <trkpt lat="40.218121" lon="-6.557639">
        <ele>453.0</ele>
        <time>2015-04-17T18:21:49Z</time>
      </trkpt>
      <trkpt lat="40.218052" lon="-6.557768">
        <ele>453.0</ele>
        <time>2015-04-17T18:22:09Z</time>
      </trkpt>
      <trkpt lat="40.218024" lon="-6.557894">
        <ele>453.0</ele>
        <time>2015-04-17T18:22:29Z</time>
      </trkpt>
      <trkpt lat="40.218005" lon="-6.558209">
        <ele>454.0</ele>
        <time>2015-04-17T18:22:49Z</time>
      </trkpt>
      <trkpt lat="40.217988" lon="-6.558689">
        <ele>454.0</ele>
        <time>2015-04-17T18:23:09Z</time>
      </trkpt>
      <trkpt lat="40.217987" lon="-6.558900">
        <ele>454.0</ele>
        <time>2015-04-17T18:23:29Z</time>
      </trkpt>
      <trkpt lat="40.218035" lon="-6.559106">
        <ele>454.0</ele>
        <time>2015-04-17T18:23:49Z</time>
      </trkpt>
      <trkpt lat="40.218179" lon="-6.559321">
        <ele>455.0</ele>
        <time>2015-04-17T18:24:09Z</time>
      </trkpt>
      <trkpt lat="40.218338" lon="-6.559542">
        <ele>456.0</ele>
        <time>2015-04-17T18:24:29Z</time>
      </trkpt>
      <trkpt lat="40.218434" lon="-6.559718">
        <ele>457.0</ele>
        <time>2015-04-17T18:24:49Z</time>
      </trkpt>
      <trkpt lat="40.218516" lon="-6.559983">
        <ele>459.0</ele>
        <time>2015-04-17T18:25:09Z</time>
      </trkpt>
      <trkpt lat="40.218589" lon="-6.560195">
        <ele>460.0</ele>
        <time>2015-04-17T18:25:29Z</time>
      </trkpt>
      <trkpt lat="40.218614" lon="-6.560318">
        <ele>460.0</ele>
        <time>2015-04-17T18:25:49Z</time>
      </trkpt>
      <trkpt lat="40.218581" lon="-6.560506">
        <ele>461.0</ele>
        <time>2015-04-17T18:26:09Z</time>
      </trkpt>
      <trkpt lat="40.218553" lon="-6.560729">
        <ele>462.0</ele>
        <time>2015-04-17T18:26:29Z</time>
      </trkpt>
      <trkpt lat="40.218514" lon="-6.560925">
        <ele>462.0</ele>
        <time>2015-04-17T18:26:49Z</time>
      </trkpt>
      <trkpt lat="40.218518" lon="-6.561064">
        <ele>464.0</ele>
        <time>2015-04-17T18:27:09Z</time>
      </trkpt>
      <trkpt lat="40.218514" lon="-6.561217">
        <ele>464.0</ele>
        <time>2015-04-17T18:27:29Z</time>
      </trkpt>
      <trkpt lat="40.218493" lon="-6.561343">
        <ele>466.0</ele>
        <time>2015-04-17T18:27:49Z</time>
      </trkpt>
      <trkpt lat="40.218426" lon="-6.561410">
        <ele>467.0</ele>
        <time>2015-04-17T18:28:09Z</time>
      </trkpt>
      <trkpt lat="40.218348" lon="-6.561402">
        <ele>467.0</ele>
        <time>2015-04-17T18:28:29Z</time>
      </trkpt>
      <trkpt lat="40.218176" lon="-6.561399">
        <ele>468.0</ele>
        <time>2015-04-17T18:28:49Z</time>
      </trkpt>
      <trkpt lat="40.218026" lon="-6.561394">
        <ele>468.0</ele>
        <time>2015-04-17T18:29:09Z</time>
      </trkpt>
      <trkpt lat="40.217920" lon="-6.561378">
        <ele>468.0</ele>
        <time>2015-04-17T18:29:29Z</time>
      </trkpt>
      <trkpt lat="40.217787" lon="-6.561330">
        <ele>468.0</ele>
        <time>2015-04-17T18:29:49Z</time>
      </trkpt>
      <trkpt lat="40.217717" lon="-6.561354">
        <ele>468.0</ele>
        <time>2015-04-17T18:30:09Z</time>
      </trkpt>
      <trkpt lat="40.217602" lon="-6.561456">
        <ele>468.0</ele>
        <time>2015-04-17T18:30:29Z</time>
      </trkpt>
      <trkpt lat="40.217549" lon="-6.561566">
        <ele>471.0</ele>
        <time>2015-04-17T18:30:49Z</time>
      </trkpt>
      <trkpt lat="40.217541" lon="-6.561737">
        <ele>471.0</ele>
        <time>2015-04-17T18:31:09Z</time>
      </trkpt>
      <trkpt lat="40.217535" lon="-6.561968">
        <ele>473.0</ele>
        <time>2015-04-17T18:31:29Z</time>
      </trkpt>
      <trkpt lat="40.217518" lon="-6.562330">
        <ele>475.0</ele>
        <time>2015-04-17T18:31:49Z</time>
      </trkpt>
      <trkpt lat="40.217463" lon="-6.562529">
        <ele>477.0</ele>
        <time>2015-04-17T18:32:09Z</time>
      </trkpt>
      <trkpt lat="40.217434" lon="-6.562649">
        <ele>479.0</ele>
        <time>2015-04-17T18:32:29Z</time>
      </trkpt>
      <trkpt lat="40.217457" lon="-6.562762">
        <ele>479.0</ele>
        <time>2015-04-17T18:32:49Z</time>
      </trkpt>
      <trkpt lat="40.217502" lon="-6.562958">
        <ele>481.0</ele>
        <time>2015-04-17T18:33:09Z</time>
      </trkpt>
      <trkpt lat="40.217516" lon="-6.563231">
        <ele>482.0</ele>
        <time>2015-04-17T18:33:29Z</time>
      </trkpt>
      <trkpt lat="40.217574" lon="-6.563564">
        <ele>483.0</ele>
        <time>2015-04-17T18:33:49Z</time>
      </trkpt>
      <trkpt lat="40.217653" lon="-6.563787">
        <ele>483.0</ele>
        <time>2015-04-17T18:34:09Z</time>
      </trkpt>
      <trkpt lat="40.217676" lon="-6.563902">
        <ele>483.0</ele>
        <time>2015-04-17T18:34:29Z</time>
      </trkpt>
      <trkpt lat="40.217676" lon="-6.564031">
        <ele>484.0</ele>
        <time>2015-04-17T18:34:49Z</time>
      </trkpt>
      <trkpt lat="40.217629" lon="-6.564267">
        <ele>483.0</ele>
        <time>2015-04-17T18:35:09Z</time>
      </trkpt>
      <trkpt lat="40.217557" lon="-6.564610">
        <ele>484.0</ele>
        <time>2015-04-17T18:35:29Z</time>
      </trkpt>
      <trkpt lat="40.217502" lon="-6.564870">
        <ele>484.0</ele>
        <time>2015-04-17T18:35:49Z</time>
      </trkpt>
      <trkpt lat="40.217500" lon="-6.565034">
        <ele>484.0</ele>
        <time>2015-04-17T18:36:09Z</time>
      </trkpt>
      <trkpt lat="40.217543" lon="-6.565238">
        <ele>485.0</ele>
        <time>2015-04-17T18:36:29Z</time>
      </trkpt>
      <trkpt lat="40.217672" lon="-6.565533">
        <ele>488.0</ele>
        <time>2015-04-17T18:36:49Z</time>
      </trkpt>
      <trkpt lat="40.217739" lon="-6.565728">
        <ele>489.0</ele>
        <time>2015-04-17T18:37:09Z</time>
      </trkpt>
      <trkpt lat="40.217770" lon="-6.565884">
        <ele>489.0</ele>
        <time>2015-04-17T18:37:29Z</time>
      </trkpt>
      <trkpt lat="40.217813" lon="-6.566249">
        <ele>491.0</ele>
        <time>2015-04-17T18:37:49Z</time>
      </trkpt>
      <trkpt lat="40.217780" lon="-6.566458">
        <ele>492.0</ele>
        <time>2015-04-17T18:38:09Z</time>
      </trkpt>
      <trkpt lat="40.217756" lon="-6.566659">
        <ele>492.0</ele>
        <time>2015-04-17T18:38:29Z</time>
      </trkpt>
      <trkpt lat="40.217772" lon="-6.566788">
        <ele>492.0</ele>
        <time>2015-04-17T18:38:49Z</time>
      </trkpt>
      <trkpt lat="40.217891" lon="-6.567228">
        <ele>494.0</ele>
        <time>2015-04-17T18:39:09Z</time>
      </trkpt>
      <trkpt lat="40.217981" lon="-6.567708">
        <ele>497.0</ele>
        <time>2015-04-17T18:39:29Z</time>
      </trkpt>
      <trkpt lat="40.218010" lon="-6.567957">
        <ele>498.0</ele>
        <time>2015-04-17T18:39:49Z</time>
      </trkpt>
      <trkpt lat="40.218051" lon="-6.568177">
        <ele>498.0</ele>
        <time>2015-04-17T18:40:09Z</time>
      </trkpt>
      <trkpt lat="40.218028" lon="-6.568362">
        <ele>499.0</ele>
        <time>2015-04-17T18:40:29Z</time>
      </trkpt>
      <trkpt lat="40.217926" lon="-6.568690">
        <ele>499.0</ele>
        <time>2015-04-17T18:40:49Z</time>
      </trkpt>
      <trkpt lat="40.217862" lon="-6.568861">
        <ele>498.0</ele>
        <time>2015-04-17T18:41:09Z</time>
      </trkpt>
      <trkpt lat="40.217834" lon="-6.568955">
        <ele>498.0</ele>
        <time>2015-04-17T18:41:29Z</time>
      </trkpt>
      <trkpt lat="40.217842" lon="-6.569089">
        <ele>498.0</ele>
        <time>2015-04-17T18:41:49Z</time>
      </trkpt>
      <trkpt lat="40.217920" lon="-6.569438">
        <ele>501.0</ele>
        <time>2015-04-17T18:42:09Z</time>
      </trkpt>
      <trkpt lat="40.217995" lon="-6.569905">
        <ele>500.0</ele>
        <time>2015-04-17T18:42:29Z</time>
      </trkpt>
      <trkpt lat="40.218045" lon="-6.570323">
        <ele>500.0</ele>
        <time>2015-04-17T18:42:49Z</time>
      </trkpt>
      <trkpt lat="40.218065" lon="-6.570586">
        <ele>499.0</ele>
        <time>2015-04-17T18:43:09Z</time>
      </trkpt>
      <trkpt lat="40.218104" lon="-6.570967">
        <ele>498.0</ele>
        <time>2015-04-17T18:43:29Z</time>
      </trkpt>
      <trkpt lat="40.218149" lon="-6.571232">
        <ele>497.0</ele>
        <time>2015-04-17T18:43:49Z</time>
      </trkpt>
      <trkpt lat="40.218278" lon="-6.571573">
        <ele>499.0</ele>
        <time>2015-04-17T18:44:09Z</time>
      </trkpt>
      <trkpt lat="40.218495" lon="-6.571970">
        <ele>502.0</ele>
        <time>2015-04-17T18:44:29Z</time>
      </trkpt>
      <trkpt lat="40.218870" lon="-6.572485">
        <ele>504.0</ele>
        <time>2015-04-17T18:44:49Z</time>
      </trkpt>
      <trkpt lat="40.218993" lon="-6.572590">
        <ele>504.0</ele>
        <time>2015-04-17T18:45:09Z</time>
      </trkpt>
      <trkpt lat="40.219448" lon="-6.572887">
        <ele>509.0</ele>
        <time>2015-04-17T18:45:29Z</time>
      </trkpt>
      <trkpt lat="40.219802" lon="-6.573094">
        <ele>509.0</ele>
        <time>2015-04-17T18:45:49Z</time>
      </trkpt>
      <trkpt lat="40.220044" lon="-6.573341">
        <ele>509.0</ele>
        <time>2015-04-17T18:46:09Z</time>
      </trkpt>
      <trkpt lat="40.220240" lon="-6.573700">
        <ele>510.0</ele>
        <time>2015-04-17T18:46:29Z</time>
      </trkpt>
      <trkpt lat="40.220355" lon="-6.573963">
        <ele>510.0</ele>
        <time>2015-04-17T18:46:49Z</time>
      </trkpt>
      <trkpt lat="40.220371" lon="-6.574188">
        <ele>510.0</ele>
        <time>2015-04-17T18:47:09Z</time>
      </trkpt>
      <trkpt lat="40.220355" lon="-6.574357">
        <ele>511.0</ele>
        <time>2015-04-17T18:47:29Z</time>
      </trkpt>
      <trkpt lat="40.220429" lon="-6.574502">
        <ele>512.0</ele>
        <time>2015-04-17T18:47:49Z</time>
      </trkpt>
      <trkpt lat="40.220572" lon="-6.574684">
        <ele>513.0</ele>
        <time>2015-04-17T18:48:09Z</time>
      </trkpt>
      <trkpt lat="40.220683" lon="-6.575130">
        <ele>515.0</ele>
        <time>2015-04-17T18:48:29Z</time>
      </trkpt>
      <trkpt lat="40.220838" lon="-6.575387">
        <ele>520.0</ele>
        <time>2015-04-17T18:48:49Z</time>
      </trkpt>
      <trkpt lat="40.221154" lon="-6.575698">
        <ele>526.0</ele>
        <time>2015-04-17T18:49:09Z</time>
      </trkpt>
      <trkpt lat="40.221477" lon="-6.576149">
        <ele>531.0</ele>
        <time>2015-04-17T18:49:29Z</time>
      </trkpt>
      <trkpt lat="40.221772" lon="-6.576396">
        <ele>536.0</ele>
        <time>2015-04-17T18:49:49Z</time>
      </trkpt>
      <trkpt lat="40.222161" lon="-6.576728">
        <ele>547.0</ele>
        <time>2015-04-17T18:50:09Z</time>
      </trkpt>
      <trkpt lat="40.222411" lon="-6.576873">
        <ele>553.0</ele>
        <time>2015-04-17T18:50:29Z</time>
      </trkpt>
      <trkpt lat="40.222583" lon="-6.576975">
        <ele>553.0</ele>
        <time>2015-04-17T18:50:49Z</time>
      </trkpt>
      <trkpt lat="40.222849" lon="-6.577018">
        <ele>555.0</ele>
        <time>2015-04-17T18:51:09Z</time>
      </trkpt>
      <trkpt lat="40.223070" lon="-6.577055">
        <ele>556.0</ele>
        <time>2015-04-17T18:51:29Z</time>
      </trkpt>
      <trkpt lat="40.223267" lon="-6.577055">
        <ele>556.0</ele>
        <time>2015-04-17T18:51:49Z</time>
      </trkpt>
      <trkpt lat="40.223435" lon="-6.577018">
        <ele>556.0</ele>
        <time>2015-04-17T18:52:09Z</time>
      </trkpt>
      <trkpt lat="40.223531" lon="-6.577093">
        <ele>559.0</ele>
        <time>2015-04-17T18:52:29Z</time>
      </trkpt>
      <trkpt lat="40.223537" lon="-6.577090">
        <ele>559.0</ele>
        <time>2015-04-17T17:31:39Z</time>
      </trkpt>
      <trkpt lat="40.223537" lon="-6.577270">
        <ele>559.0</ele>
        <time>2015-04-17T17:31:59Z</time>
      </trkpt>
      <trkpt lat="40.223513" lon="-6.577313">
        <ele>559.0</ele>
        <time>2015-04-17T17:32:19Z</time>
      </trkpt>
      <trkpt lat="40.223521" lon="-6.577444">
        <ele>561.0</ele>
        <time>2015-04-17T17:32:39Z</time>
      </trkpt>
      <trkpt lat="40.223554" lon="-6.577554">
        <ele>561.0</ele>
        <time>2015-04-17T17:32:59Z</time>
      </trkpt>
      <trkpt lat="40.223613" lon="-6.577710">
        <ele>564.0</ele>
        <time>2015-04-17T17:33:19Z</time>
      </trkpt>
      <trkpt lat="40.223630" lon="-6.577941">
        <ele>566.0</ele>
        <time>2015-04-17T17:33:39Z</time>
      </trkpt>
      <trkpt lat="40.223707" lon="-6.578327">
        <ele>568.0</ele>
        <time>2015-04-17T17:33:59Z</time>
      </trkpt>
      <trkpt lat="40.223744" lon="-6.578555">
        <ele>570.0</ele>
        <time>2015-04-17T17:34:19Z</time>
      </trkpt>
      <trkpt lat="40.223845" lon="-6.578946">
        <ele>576.0</ele>
        <time>2015-04-17T17:34:39Z</time>
      </trkpt>
      <trkpt lat="40.223900" lon="-6.579099">
        <ele>577.0</ele>
        <time>2015-04-17T17:34:59Z</time>
      </trkpt>
      <trkpt lat="40.223900" lon="-6.579207">
        <ele>577.0</ele>
        <time>2015-04-17T17:35:19Z</time>
      </trkpt>
      <trkpt lat="40.223892" lon="-6.579271">
        <ele>577.0</ele>
        <time>2015-04-17T17:35:39Z</time>
      </trkpt>
      <trkpt lat="40.223863" lon="-6.579384">
        <ele>579.0</ele>
        <time>2015-04-17T17:35:59Z</time>
      </trkpt>
      <trkpt lat="40.223881" lon="-6.579469">
        <ele>579.0</ele>
        <time>2015-04-17T17:36:19Z</time>
      </trkpt>
      <trkpt lat="40.223941" lon="-6.579676">
        <ele>580.0</ele>
        <time>2015-04-17T17:36:39Z</time>
      </trkpt>
      <trkpt lat="40.223941" lon="-6.579781">
        <ele>580.0</ele>
        <time>2015-04-17T17:36:59Z</time>
      </trkpt>
      <trkpt lat="40.223916" lon="-6.579909">
        <ele>582.0</ele>
        <time>2015-04-17T17:37:19Z</time>
      </trkpt>
      <trkpt lat="40.223920" lon="-6.580046">
        <ele>582.0</ele>
        <time>2015-04-17T17:37:39Z</time>
      </trkpt>
      <trkpt lat="40.223929" lon="-6.580202">
        <ele>584.0</ele>
        <time>2015-04-17T17:37:59Z</time>
      </trkpt>
      <trkpt lat="40.223929" lon="-6.580293">
        <ele>584.0</ele>
        <time>2015-04-17T17:38:19Z</time>
      </trkpt>
      <trkpt lat="40.223939" lon="-6.580387">
        <ele>584.0</ele>
        <time>2015-04-17T17:38:39Z</time>
      </trkpt>
      <trkpt lat="40.223972" lon="-6.580550">
        <ele>586.0</ele>
        <time>2015-04-17T17:38:59Z</time>
      </trkpt>
      <trkpt lat="40.224029" lon="-6.580698">
        <ele>593.0</ele>
        <time>2015-04-17T17:39:19Z</time>
      </trkpt>
      <trkpt lat="40.224062" lon="-6.580875">
        <ele>593.0</ele>
        <time>2015-04-17T17:39:39Z</time>
      </trkpt>
      <trkpt lat="40.224064" lon="-6.581041">
        <ele>595.0</ele>
        <time>2015-04-17T17:39:59Z</time>
      </trkpt>
      <trkpt lat="40.224090" lon="-6.581149">
        <ele>595.0</ele>
        <time>2015-04-17T17:40:19Z</time>
      </trkpt>
      <trkpt lat="40.224119" lon="-6.581283">
        <ele>598.0</ele>
        <time>2015-04-17T17:40:39Z</time>
      </trkpt>
      <trkpt lat="40.224135" lon="-6.581409">
        <ele>598.0</ele>
        <time>2015-04-17T17:40:59Z</time>
      </trkpt>
      <trkpt lat="40.224133" lon="-6.581527">
        <ele>598.0</ele>
        <time>2015-04-17T17:41:19Z</time>
      </trkpt>
      <trkpt lat="40.224074" lon="-6.581706">
        <ele>601.0</ele>
        <time>2015-04-17T17:41:39Z</time>
      </trkpt>
      <trkpt lat="40.224000" lon="-6.581883">
        <ele>601.0</ele>
        <time>2015-04-17T17:41:59Z</time>
      </trkpt>
      <trkpt lat="40.223898" lon="-6.581999">
        <ele>601.0</ele>
        <time>2015-04-17T17:42:19Z</time>
      </trkpt>
      <trkpt lat="40.223791" lon="-6.582047">
        <ele>601.0</ele>
        <time>2015-04-17T17:42:39Z</time>
      </trkpt>
      <trkpt lat="40.223656" lon="-6.582034">
        <ele>597.0</ele>
        <time>2015-04-17T17:42:59Z</time>
      </trkpt>
      <trkpt lat="40.223544" lon="-6.582079">
        <ele>597.0</ele>
        <time>2015-04-17T17:43:19Z</time>
      </trkpt>
      <trkpt lat="40.223492" lon="-6.582130">
        <ele>599.0</ele>
        <time>2015-04-17T17:43:39Z</time>
      </trkpt>
      <trkpt lat="40.223453" lon="-6.582237">
        <ele>594.0</ele>
        <time>2015-04-17T17:43:59Z</time>
      </trkpt>
      <trkpt lat="40.223466" lon="-6.582364">
        <ele>595.0</ele>
        <time>2015-04-17T17:44:19Z</time>
      </trkpt>
      <trkpt lat="40.223478" lon="-6.582557">
        <ele>600.0</ele>
        <time>2015-04-17T17:44:39Z</time>
      </trkpt>
      <trkpt lat="40.223509" lon="-6.582739">
        <ele>602.0</ele>
        <time>2015-04-17T17:44:59Z</time>
      </trkpt>
      <trkpt lat="40.223568" lon="-6.582892">
        <ele>602.0</ele>
        <time>2015-04-17T17:45:19Z</time>
      </trkpt>
      <trkpt lat="40.223705" lon="-6.583107">
        <ele>603.0</ele>
        <time>2015-04-17T17:45:39Z</time>
      </trkpt>
      <trkpt lat="40.223841" lon="-6.583257">
        <ele>611.0</ele>
        <time>2015-04-17T17:45:59Z</time>
      </trkpt>
      <trkpt lat="40.224031" lon="-6.583503">
        <ele>620.0</ele>
        <time>2015-04-17T17:46:19Z</time>
      </trkpt>
      <trkpt lat="40.224156" lon="-6.583681">
        <ele>620.0</ele>
        <time>2015-04-17T17:46:39Z</time>
      </trkpt>
      <trkpt lat="40.224244" lon="-6.583863">
        <ele>622.0</ele>
        <time>2015-04-17T17:46:59Z</time>
      </trkpt>
      <trkpt lat="40.224291" lon="-6.584029">
        <ele>625.0</ele>
        <time>2015-04-17T17:47:19Z</time>
      </trkpt>
      <trkpt lat="40.224289" lon="-6.584187">
        <ele>625.0</ele>
        <time>2015-04-17T17:47:39Z</time>
      </trkpt>
      <trkpt lat="40.224275" lon="-6.584348">
        <ele>628.0</ele>
        <time>2015-04-17T17:47:59Z</time>
      </trkpt>
      <trkpt lat="40.224266" lon="-6.584488">
        <ele>628.0</ele>
        <time>2015-04-17T17:48:19Z</time>
      </trkpt>
      <trkpt lat="40.224332" lon="-6.584753">
        <ele>638.0</ele>
        <time>2015-04-17T17:48:39Z</time>
      </trkpt>
      <trkpt lat="40.224352" lon="-6.584976">
        <ele>641.0</ele>
        <time>2015-04-17T17:48:59Z</time>
      </trkpt>
      <trkpt lat="40.224408" lon="-6.585145">
        <ele>645.0</ele>
        <time>2015-04-17T17:49:19Z</time>
      </trkpt>
      <trkpt lat="40.224498" lon="-6.585301">
        <ele>645.0</ele>
        <time>2015-04-17T17:49:39Z</time>
      </trkpt>
      <trkpt lat="40.224639" lon="-6.585571">
        <ele>654.0</ele>
        <time>2015-04-17T17:49:59Z</time>
      </trkpt>
      <trkpt lat="40.224783" lon="-6.585848">
        <ele>658.0</ele>
        <time>2015-04-17T17:50:19Z</time>
      </trkpt>
      <trkpt lat="40.224944" lon="-6.586086">
        <ele>665.0</ele>
        <time>2015-04-17T17:50:39Z</time>
      </trkpt>
      <trkpt lat="40.225141" lon="-6.586462">
        <ele>671.0</ele>
        <time>2015-04-17T17:50:59Z</time>
      </trkpt>
      <trkpt lat="40.225311" lon="-6.586741">
        <ele>671.0</ele>
        <time>2015-04-17T17:51:19Z</time>
      </trkpt>
      <trkpt lat="40.225452" lon="-6.586923">
        <ele>679.0</ele>
        <time>2015-04-17T17:51:39Z</time>
      </trkpt>
      <trkpt lat="40.225544" lon="-6.587084">
        <ele>679.0</ele>
        <time>2015-04-17T17:51:59Z</time>
      </trkpt>
      <trkpt lat="40.225606" lon="-6.587256">
        <ele>679.0</ele>
        <time>2015-04-17T17:52:19Z</time>
      </trkpt>
      <trkpt lat="40.225628" lon="-6.587444">
        <ele>680.0</ele>
        <time>2015-04-17T17:52:39Z</time>
      </trkpt>
      <trkpt lat="40.225626" lon="-6.587674">
        <ele>681.0</ele>
        <time>2015-04-17T17:52:59Z</time>
      </trkpt>
      <trkpt lat="40.225600" lon="-6.587918">
        <ele>683.0</ele>
        <time>2015-04-17T17:53:19Z</time>
      </trkpt>
      <trkpt lat="40.225600" lon="-6.588085">
        <ele>683.0</ele>
        <time>2015-04-17T17:53:39Z</time>
      </trkpt>
      <trkpt lat="40.225614" lon="-6.588184">
        <ele>683.0</ele>
        <time>2015-04-17T17:53:59Z</time>
      </trkpt>
      <trkpt lat="40.225688" lon="-6.588323">
        <ele>685.0</ele>
        <time>2015-04-17T17:54:19Z</time>
      </trkpt>
      <trkpt lat="40.225755" lon="-6.588433">
        <ele>689.0</ele>
        <time>2015-04-17T17:54:39Z</time>
      </trkpt>
      <trkpt lat="40.225770" lon="-6.588543">
        <ele>690.0</ele>
        <time>2015-04-17T17:54:59Z</time>
      </trkpt>
      <trkpt lat="40.225772" lon="-6.588696">
        <ele>690.0</ele>
        <time>2015-04-17T17:55:19Z</time>
      </trkpt>
      <trkpt lat="40.225800" lon="-6.588750">
        <ele>690.0</ele>
        <time>2015-04-17T17:55:39Z</time>
      </trkpt>
      <trkpt lat="40.225862" lon="-6.588825">
        <ele>692.0</ele>
        <time>2015-04-17T17:55:59Z</time>
      </trkpt>
      <trkpt lat="40.225901" lon="-6.588922">
        <ele>692.0</ele>
        <time>2015-04-17T17:56:19Z</time>
      </trkpt>
      <trkpt lat="40.225917" lon="-6.589040">
        <ele>695.0</ele>
        <time>2015-04-17T17:56:39Z</time>
      </trkpt>
      <trkpt lat="40.226138" lon="-6.589158">
        <ele>697.0</ele>
        <time>2015-04-17T17:56:59Z</time>
      </trkpt>
      <trkpt lat="40.226278" lon="-6.589265">
        <ele>698.0</ele>
        <time>2015-04-17T17:57:19Z</time>
      </trkpt>
      <trkpt lat="40.226415" lon="-6.589230">
        <ele>698.0</ele>
        <time>2015-04-17T17:57:39Z</time>
      </trkpt>
      <trkpt lat="40.226568" lon="-6.589211">
        <ele>696.0</ele>
        <time>2015-04-17T17:57:59Z</time>
      </trkpt>
      <trkpt lat="40.226650" lon="-6.589160">
        <ele>696.0</ele>
        <time>2015-04-17T17:58:19Z</time>
      </trkpt>
      <trkpt lat="40.226783" lon="-6.589206">
        <ele>696.0</ele>
        <time>2015-04-17T17:58:39Z</time>
      </trkpt>
      <trkpt lat="40.226947" lon="-6.589217">
        <ele>692.0</ele>
        <time>2015-04-17T17:58:59Z</time>
      </trkpt>
      <trkpt lat="40.227119" lon="-6.589203">
        <ele>688.0</ele>
        <time>2015-04-17T17:59:19Z</time>
      </trkpt>
      <trkpt lat="40.227297" lon="-6.589270">
        <ele>688.0</ele>
        <time>2015-04-17T17:59:39Z</time>
      </trkpt>
      <trkpt lat="40.227473" lon="-6.589388">
        <ele>680.0</ele>
        <time>2015-04-17T17:59:59Z</time>
      </trkpt>
      <trkpt lat="40.227699" lon="-6.589509">
        <ele>675.0</ele>
        <time>2015-04-17T18:00:19Z</time>
      </trkpt>
      <trkpt lat="40.228022" lon="-6.589603">
        <ele>665.0</ele>
        <time>2015-04-17T18:00:39Z</time>
      </trkpt>
      <trkpt lat="40.228219" lon="-6.589638">
        <ele>661.0</ele>
        <time>2015-04-17T18:00:59Z</time>
      </trkpt>
      <trkpt lat="40.228395" lon="-6.589654">
        <ele>661.0</ele>
        <time>2015-04-17T18:01:19Z</time>
      </trkpt>
      <trkpt lat="40.228616" lon="-6.589825">
        <ele>659.0</ele>
        <time>2015-04-17T18:01:39Z</time>
      </trkpt>
      <trkpt lat="40.228778" lon="-6.589943">
        <ele>655.0</ele>
        <time>2015-04-17T18:01:59Z</time>
      </trkpt>
      <trkpt lat="40.228950" lon="-6.590008">
        <ele>655.0</ele>
        <time>2015-04-17T18:02:19Z</time>
      </trkpt>
      <trkpt lat="40.229142" lon="-6.590048">
        <ele>658.0</ele>
        <time>2015-04-17T18:02:39Z</time>
      </trkpt>
      <trkpt lat="40.229302" lon="-6.590021">
        <ele>658.0</ele>
        <time>2015-04-17T18:02:59Z</time>
      </trkpt>
      <trkpt lat="40.229405" lon="-6.590016">
        <ele>661.0</ele>
        <time>2015-04-17T18:03:19Z</time>
      </trkpt>
      <trkpt lat="40.229470" lon="-6.590078">
        <ele>661.0</ele>
        <time>2015-04-17T18:03:39Z</time>
      </trkpt>
      <trkpt lat="40.229491" lon="-6.590308">
        <ele>656.0</ele>
        <time>2015-04-17T18:03:59Z</time>
      </trkpt>
      <trkpt lat="40.229488" lon="-6.590472">
        <ele>650.0</ele>
        <time>2015-04-17T18:04:19Z</time>
      </trkpt>
      <trkpt lat="40.229497" lon="-6.590560">
        <ele>650.0</ele>
        <time>2015-04-17T18:04:39Z</time>
      </trkpt>
      <trkpt lat="40.229507" lon="-6.590724">
        <ele>644.0</ele>
        <time>2015-04-17T18:04:59Z</time>
      </trkpt>
      <trkpt lat="40.229503" lon="-6.590839">
        <ele>644.0</ele>
        <time>2015-04-17T18:05:19Z</time>
      </trkpt>
      <trkpt lat="40.229562" lon="-6.591035">
        <ele>638.0</ele>
        <time>2015-04-17T18:05:39Z</time>
      </trkpt>
      <trkpt lat="40.229622" lon="-6.591260">
        <ele>634.0</ele>
        <time>2015-04-17T18:05:59Z</time>
      </trkpt>
      <trkpt lat="40.229687" lon="-6.591413">
        <ele>634.0</ele>
        <time>2015-04-17T18:06:19Z</time>
      </trkpt>
      <trkpt lat="40.229761" lon="-6.591529">
        <ele>629.0</ele>
        <time>2015-04-17T18:06:39Z</time>
      </trkpt>
      <trkpt lat="40.229959" lon="-6.591749">
        <ele>632.0</ele>
        <time>2015-04-17T18:06:59Z</time>
      </trkpt>
      <trkpt lat="40.230101" lon="-6.591907">
        <ele>628.0</ele>
        <time>2015-04-17T18:07:19Z</time>
      </trkpt>
      <trkpt lat="40.230330" lon="-6.592041">
        <ele>632.0</ele>
        <time>2015-04-17T18:07:39Z</time>
      </trkpt>
      <trkpt lat="40.230537" lon="-6.592129">
        <ele>628.0</ele>
        <time>2015-04-17T18:07:59Z</time>
      </trkpt>
      <trkpt lat="40.230815" lon="-6.592218">
        <ele>629.0</ele>
        <time>2015-04-17T18:08:19Z</time>
      </trkpt>
      <trkpt lat="40.231045" lon="-6.592221">
        <ele>629.0</ele>
        <time>2015-04-17T18:08:39Z</time>
      </trkpt>
      <trkpt lat="40.231278" lon="-6.592170">
        <ele>628.0</ele>
        <time>2015-04-17T18:08:59Z</time>
      </trkpt>
      <trkpt lat="40.231630" lon="-6.592038">
        <ele>632.0</ele>
        <time>2015-04-17T18:09:19Z</time>
      </trkpt>
      <trkpt lat="40.231895" lon="-6.591885">
        <ele>627.0</ele>
        <time>2015-04-17T18:09:39Z</time>
      </trkpt>
      <trkpt lat="40.232019" lon="-6.591856">
        <ele>627.0</ele>
        <time>2015-04-17T18:09:59Z</time>
      </trkpt>
      <trkpt lat="40.232275" lon="-6.591845">
        <ele>622.0</ele>
        <time>2015-04-17T18:10:19Z</time>
      </trkpt>
      <trkpt lat="40.232443" lon="-6.591877">
        <ele>620.0</ele>
        <time>2015-04-17T18:10:39Z</time>
      </trkpt>
      <trkpt lat="40.232628" lon="-6.591974">
        <ele>620.0</ele>
        <time>2015-04-17T18:10:59Z</time>
      </trkpt>
      <trkpt lat="40.232779" lon="-6.592105">
        <ele>612.0</ele>
        <time>2015-04-17T18:11:19Z</time>
      </trkpt>
      <trkpt lat="40.232880" lon="-6.592183">
        <ele>612.0</ele>
        <time>2015-04-17T18:11:39Z</time>
      </trkpt>
      <trkpt lat="40.233043" lon="-6.592188">
        <ele>614.0</ele>
        <time>2015-04-17T18:11:59Z</time>
      </trkpt>
      <trkpt lat="40.233209" lon="-6.592132">
        <ele>614.0</ele>
        <time>2015-04-17T18:12:19Z</time>
      </trkpt>
      <trkpt lat="40.233393" lon="-6.592019">
        <ele>618.0</ele>
        <time>2015-04-17T18:12:39Z</time>
      </trkpt>
      <trkpt lat="40.233617" lon="-6.591885">
        <ele>616.0</ele>
        <time>2015-04-17T18:12:59Z</time>
      </trkpt>
      <trkpt lat="40.233770" lon="-6.591797">
        <ele>615.0</ele>
        <time>2015-04-17T18:13:19Z</time>
      </trkpt>
      <trkpt lat="40.233907" lon="-6.591759">
        <ele>615.0</ele>
        <time>2015-04-17T18:13:39Z</time>
      </trkpt>
      <trkpt lat="40.234016" lon="-6.591778">
        <ele>615.0</ele>
        <time>2015-04-17T18:13:59Z</time>
      </trkpt>
      <trkpt lat="40.234135" lon="-6.591859">
        <ele>606.0</ele>
        <time>2015-04-17T18:14:19Z</time>
      </trkpt>
      <trkpt lat="40.234301" lon="-6.591910">
        <ele>606.0</ele>
        <time>2015-04-17T18:14:39Z</time>
      </trkpt>
      <trkpt lat="40.234454" lon="-6.591883">
        <ele>601.0</ele>
        <time>2015-04-17T18:14:59Z</time>
      </trkpt>
      <trkpt lat="40.234606" lon="-6.591859">
        <ele>597.0</ele>
        <time>2015-04-17T18:15:19Z</time>
      </trkpt>
      <trkpt lat="40.234755" lon="-6.591888">
        <ele>597.0</ele>
        <time>2015-04-17T18:15:39Z</time>
      </trkpt>
      <trkpt lat="40.234923" lon="-6.591974">
        <ele>595.0</ele>
        <time>2015-04-17T18:15:59Z</time>
      </trkpt>
      <trkpt lat="40.235183" lon="-6.592135">
        <ele>593.0</ele>
        <time>2015-04-17T18:16:19Z</time>
      </trkpt>
      <trkpt lat="40.235357" lon="-6.592226">
        <ele>593.0</ele>
        <time>2015-04-17T18:16:39Z</time>
      </trkpt>
      <trkpt lat="40.235586" lon="-6.592290">
        <ele>594.0</ele>
        <time>2015-04-17T18:16:59Z</time>
      </trkpt>
      <trkpt lat="40.235781" lon="-6.592341">
        <ele>596.0</ele>
        <time>2015-04-17T18:17:19Z</time>
      </trkpt>
      <trkpt lat="40.235887" lon="-6.592398">
        <ele>596.0</ele>
        <time>2015-04-17T18:17:39Z</time>
      </trkpt>
      <trkpt lat="40.235935" lon="-6.592508">
        <ele>596.0</ele>
        <time>2015-04-17T18:17:59Z</time>
      </trkpt>
      <trkpt lat="40.236037" lon="-6.592902">
        <ele>601.0</ele>
        <time>2015-04-17T18:18:19Z</time>
      </trkpt>
      <trkpt lat="40.236074" lon="-6.593036">
        <ele>602.0</ele>
        <time>2015-04-17T18:18:39Z</time>
      </trkpt>
      <trkpt lat="40.236182" lon="-6.593267">
        <ele>603.0</ele>
        <time>2015-04-17T18:18:59Z</time>
      </trkpt>
      <trkpt lat="40.236539" lon="-6.593658">
        <ele>616.0</ele>
        <time>2015-04-17T18:19:19Z</time>
      </trkpt>
      <trkpt lat="40.236821" lon="-6.594047">
        <ele>626.0</ele>
        <time>2015-04-17T18:19:39Z</time>
      </trkpt>
      <trkpt lat="40.236997" lon="-6.594299">
        <ele>626.0</ele>
        <time>2015-04-17T18:19:59Z</time>
      </trkpt>
      <trkpt lat="40.237114" lon="-6.594600">
        <ele>632.0</ele>
        <time>2015-04-17T18:20:19Z</time>
      </trkpt>
      <trkpt lat="40.237132" lon="-6.594667">
        <ele>632.0</ele>
        <time>2015-04-17T18:20:39Z</time>
      </trkpt>
      <trkpt lat="40.237093" lon="-6.594753">
        <ele>632.0</ele>
        <time>2015-04-17T18:20:59Z</time>
      </trkpt>
      <trkpt lat="40.237143" lon="-6.594798">
        <ele>632.0</ele>
        <time>2015-04-17T18:21:19Z</time>
      </trkpt>
      <trkpt lat="40.237225" lon="-6.594785">
        <ele>632.0</ele>
        <time>2015-04-17T18:21:39Z</time>
      </trkpt>
      <trkpt lat="40.237333" lon="-6.595007">
        <ele>635.0</ele>
        <time>2015-04-17T18:21:59Z</time>
      </trkpt>
      <trkpt lat="40.237380" lon="-6.595147">
        <ele>642.0</ele>
        <time>2015-04-17T18:22:19Z</time>
      </trkpt>
      <trkpt lat="40.237370" lon="-6.595335">
        <ele>642.0</ele>
        <time>2015-04-17T18:22:39Z</time>
      </trkpt>
      <trkpt lat="40.237325" lon="-6.595512">
        <ele>639.0</ele>
        <time>2015-04-17T18:22:59Z</time>
      </trkpt>
      <trkpt lat="40.237329" lon="-6.595627">
        <ele>639.0</ele>
        <time>2015-04-17T18:23:19Z</time>
      </trkpt>
      <trkpt lat="40.237327" lon="-6.595780">
        <ele>640.0</ele>
        <time>2015-04-17T18:23:39Z</time>
      </trkpt>
    </trkseg>
  </trk>
</gpx>
